Time;durP1;ratioP1;P1;durP2;ratioP2;P2;SDS_P1;SDS_P2;PMS_P1;PMS_P2;Temp;Humidity;BMP_temperature;BMP_pressure;BME280_temperature;BME280_humidity;BME280_pressure;Samples;Min_cycle;Max_cycle;Signal;HPM_P1;HPM_P2
2022/11/28 05:04:44;;;;;;;4.13;3.15;;;5.70;99.90;;;;;;5879405;23;20227;-69
2022/11/28 05:07:09;;;;;;;3.53;3.33;;;5.70;99.90;;;;;;4954987;29;20180;-67
2022/11/28 05:09:35;;;;;;;4.23;3.83;;;5.60;99.90;;;;;;4953966;29;20262;-65
2022/11/28 05:12:02;;;;;;;2.45;2.25;;;5.60;99.90;;;;;;4954903;29;20221;-64
2022/11/28 05:14:27;;;;;;;2.88;2.67;;;5.70;99.90;;;;;;4954491;28;20259;-66
2022/11/28 05:16:53;;;;;;;5.30;3.37;;;5.60;99.90;;;;;;4955168;29;20212;-66
2022/11/28 05:19:18;;;;;;;4.47;2.80;;;5.60;99.90;;;;;;4955181;29;20208;-64
2022/11/28 05:21:44;;;;;;;3.63;3.30;;;5.50;99.90;;;;;;4937494;29;20189;-65
2022/11/28 05:24:10;;;;;;;3.67;3.20;;;5.50;99.90;;;;;;4935542;29;20546;-66
2022/11/28 05:26:36;;;;;;;4.43;4.00;;;5.50;99.90;;;;;;4935956;29;20197;-66
2022/11/28 05:29:03;;;;;;;3.97;3.38;;;5.60;99.90;;;;;;4944422;29;20182;-66
2022/11/28 05:31:29;;;;;;;3.75;3.45;;;5.60;99.90;;;;;;4955103;29;20225;-66
2022/11/28 05:33:55;;;;;;;3.50;3.20;;;5.60;99.90;;;;;;4953492;28;20557;-65
2022/11/28 05:36:21;;;;;;;3.33;3.03;;;5.60;99.90;;;;;;4955089;29;20499;-65
2022/11/28 05:38:47;;;;;;;3.95;2.92;;;5.60;99.90;;;;;;4955042;29;20183;-66
2022/11/28 05:41:24;;;;;;;4.53;4.10;;;5.60;99.90;;;;;;4946404;29;20545;-67
2022/11/28 05:43:51;;;;;;;4.10;3.13;;;5.60;99.90;;;;;;4918200;29;20976;-65
2022/11/28 05:46:17;;;;;;;4.57;3.13;;;5.60;99.90;;;;;;4936573;29;20219;-65
2022/11/28 05:48:43;;;;;;;3.85;3.55;;;5.60;99.90;;;;;;4935782;29;20204;-65
2022/11/28 05:51:09;;;;;;;2.60;2.37;;;5.60;99.90;;;;;;4935715;29;20170;-63
2022/11/28 05:53:35;;;;;;;3.50;3.13;;;5.60;99.90;;;;;;4944189;28;20583;-66
2022/11/28 05:56:12;;;;;;;3.90;3.60;;;5.70;99.90;;;;;;4955022;29;20174;-65
2022/11/28 05:58:38;;;;;;;3.38;3.00;;;5.70;99.90;;;;;;4948911;29;20421;-67
2022/11/28 06:01:16;;;;;;;3.78;3.38;;;5.80;99.90;;;;;;4939027;29;20658;-65
2022/11/28 06:03:41;;;;;;;4.25;3.10;;;5.80;99.90;;;;;;4938831;29;20244;-66
2022/11/28 06:06:14;;;;;;;4.30;3.60;;;5.80;99.90;;;;;;4939028;29;20206;-66
2022/11/28 06:08:40;;;;;;;3.80;3.47;;;5.80;99.90;;;;;;4939190;29;20189;-67
2022/11/28 06:11:07;;;;;;;3.13;2.75;;;5.80;99.90;;;;;;4921605;29;20575;-64
2022/11/28 06:13:32;;;;;;;4.40;3.97;;;5.80;99.90;;;;;;4937935;28;20190;-66
2022/11/28 06:15:58;;;;;;;8.40;3.60;;;5.80;99.90;;;;;;4950926;29;20236;-67
2022/11/28 06:18:24;;;;;;;5.53;3.33;;;5.80;99.90;;;;;;4938981;29;20272;-63
2022/11/28 06:20:49;;;;;;;3.00;2.80;;;5.70;99.90;;;;;;4938988;29;20177;-66
2022/11/28 06:23:15;;;;;;;8.50;3.90;;;5.70;99.90;;;;;;4921510;29;20217;-65
2022/11/28 06:25:41;;;;;;;3.60;3.30;;;5.70;99.90;;;;;;4938664;29;20338;-65
2022/11/28 06:28:06;;;;;;;5.40;3.63;;;5.60;99.90;;;;;;4938846;29;20171;-62
2022/11/28 06:30:32;;;;;;;3.67;3.37;;;5.60;99.90;;;;;;4938695;29;20176;-65
2022/11/28 06:32:57;;;;;;;3.63;3.33;;;5.60;99.90;;;;;;4938420;29;20177;-65
2022/11/28 06:35:23;;;;;;;4.53;4.10;;;5.70;99.90;;;;;;4938485;29;20206;-65
2022/11/28 06:37:49;;;;;;;4.30;3.90;;;5.70;99.90;;;;;;4938569;29;20631;-66
2022/11/28 06:40:14;;;;;;;5.13;4.73;;;5.70;99.90;;;;;;4938551;29;20262;-66
2022/11/28 06:42:40;;;;;;;4.63;3.70;;;5.80;99.90;;;;;;4938289;29;20304;-66
2022/11/28 06:45:06;;;;;;;5.90;3.97;;;5.80;99.90;;;;;;4937471;29;20264;-65
2022/11/28 06:47:32;;;;;;;3.67;3.30;;;5.90;99.90;;;;;;4919492;29;20201;-64
2022/11/28 06:49:57;;;;;;;2.77;2.57;;;5.90;99.90;;;;;;4955394;29;20218;-65
2022/11/28 06:52:23;;;;;;;3.67;3.40;;;6.00;99.90;;;;;;4957193;29;20254;-65
2022/11/28 06:54:49;;;;;;;4.47;3.60;;;6.00;99.90;;;;;;4952070;28;20541;-66
2022/11/28 06:57:15;;;;;;;4.43;4.03;;;6.00;99.90;;;;;;4938135;29;20180;-64
2022/11/28 06:59:40;;;;;;;2.75;2.55;;;6.00;99.90;;;;;;4938376;29;20198;-66
2022/11/28 07:02:06;;;;;;;3.70;3.40;;;6.10;99.90;;;;;;4943989;29;20641;-71
2022/11/28 07:04:32;;;;;;;6.03;3.20;;;6.10;99.90;;;;;;4937058;29;20200;-69
2022/11/28 07:06:57;;;;;;;3.67;2.73;;;6.20;99.90;;;;;;4937705;29;20687;-70
2022/11/28 07:09:23;;;;;;;4.13;3.73;;;6.20;99.90;;;;;;4938028;29;20412;-69
2022/11/28 07:11:48;;;;;;;4.60;3.50;;;6.30;99.90;;;;;;4938011;29;20260;-68
2022/11/28 07:14:14;;;;;;;3.90;3.60;;;6.30;99.90;;;;;;4935506;29;20203;-69
2022/11/28 07:16:40;;;;;;;3.73;3.43;;;6.30;99.90;;;;;;4938871;29;20256;-69
2022/11/28 07:19:05;;;;;;;3.63;2.70;;;6.30;99.90;;;;;;4957315;29;20180;-70
2022/11/28 07:21:31;;;;;;;2.83;2.60;;;6.40;99.90;;;;;;4939805;29;20172;-70
2022/11/28 07:23:58;;;;;;;4.53;3.77;;;6.40;99.90;;;;;;4956529;28;20251;-67
2022/11/28 07:26:24;;;;;;;5.25;3.65;;;6.40;99.90;;;;;;4956458;29;20628;-66
2022/11/28 07:28:50;;;;;;;9.10;4.10;;;6.40;99.90;;;;;;4956425;29;20176;-65
2022/11/28 07:31:20;;;;;;;7.10;5.40;;;6.40;99.90;;;;;;4932952;29;20177;-67
2022/11/28 07:33:48;;;;;;;6.47;3.85;;;6.40;99.90;;;;;;4936409;29;20231;-63
2022/11/28 07:36:17;;;;;;;3.78;3.47;;;6.40;99.90;;;;;;4938107;29;20180;-66
2022/11/28 07:38:50;;;;;;;4.38;3.70;;;6.40;99.90;;;;;;4936048;29;20182;-68
2022/11/28 07:41:16;;;;;;;3.70;3.30;;;6.30;99.90;;;;;;4937939;29;20247;-67
2022/11/28 07:43:43;;;;;;;4.32;3.58;;;6.30;99.90;;;;;;4934553;29;20209;-68
2022/11/28 07:46:12;;;;;;;6.55;4.05;;;6.30;99.90;;;;;;4931091;29;20201;-65
2022/11/28 07:48:37;;;;;;;3.70;3.40;;;6.30;99.90;;;;;;4946384;29;20226;-68
2022/11/28 07:51:08;;;;;;;4.67;4.30;;;6.20;99.90;;;;;;4938208;29;20184;-64
2022/11/28 07:53:34;;;;;;;7.15;3.60;;;6.30;99.90;;;;;;4935662;29;20725;-64
2022/11/28 07:56:09;;;;;;;5.13;4.68;;;6.30;99.90;;;;;;4918284;29;20178;-68
2022/11/28 07:58:42;;;;;;;3.55;3.25;;;6.30;99.90;;;;;;4936091;29;20210;-65
2022/11/28 08:01:13;;;;;;;6.13;4.55;;;6.30;99.90;;;;;;4938759;29;20237;-64
2022/11/28 08:03:39;;;;;;;3.97;3.60;;;6.30;99.90;;;;;;4930508;29;20206;-67
2022/11/28 08:06:09;;;;;;;5.28;4.40;;;6.40;99.90;;;;;;4935115;29;20208;-66
2022/11/28 08:08:34;;;;;;;6.30;3.25;;;6.40;99.90;;;;;;4925186;29;20184;-68
2022/11/28 08:11:03;;;;;;;4.37;3.93;;;6.40;99.90;;;;;;4934492;29;20190;-66
2022/11/28 08:13:29;;;;;;;4.10;3.63;;;6.50;99.90;;;;;;4935544;29;20188;-66
2022/11/28 08:15:55;;;;;;;6.07;5.00;;;6.50;99.90;;;;;;4934094;29;20177;-65
2022/11/28 08:18:21;;;;;;;4.50;3.83;;;6.60;99.90;;;;;;4936373;29;20200;-66
2022/11/28 08:20:46;;;;;;;6.13;4.50;;;6.60;99.90;;;;;;4935640;29;20181;-67
2022/11/28 08:23:12;;;;;;;4.33;3.20;;;6.50;99.90;;;;;;4935508;29;20920;-65
2022/11/28 08:25:40;;;;;;;4.13;3.83;;;6.60;99.90;;;;;;4935411;29;20562;-65
2022/11/28 08:28:06;;;;;;;5.43;4.80;;;6.60;99.90;;;;;;4935795;29;20211;-68
2022/11/28 08:30:32;;;;;;;5.30;4.00;;;6.60;99.90;;;;;;4934374;29;20649;-64
2022/11/28 08:32:58;;;;;;;5.17;4.10;;;6.50;99.90;;;;;;4934052;29;20289;-69
2022/11/28 08:35:23;;;;;;;4.30;3.90;;;6.60;99.90;;;;;;4935508;29;20239;-69
2022/11/28 08:37:49;;;;;;;4.57;4.07;;;6.60;99.90;;;;;;4942894;29;20614;-70
2022/11/28 08:40:15;;;;;;;9.80;4.40;;;6.60;99.90;;;;;;4935545;29;20426;-67
2022/11/28 08:42:43;;;;;;;5.20;4.67;;;6.70;99.90;;;;;;4935020;29;20650;-66
2022/11/28 08:45:10;;;;;;;4.82;4.35;;;6.70;99.90;;;;;;4934980;29;20240;-69
2022/11/28 08:47:36;;;;;;;4.13;3.60;;;6.70;99.90;;;;;;4935938;29;20188;-68
2022/11/28 08:50:01;;;;;;;5.20;4.70;;;6.80;99.90;;;;;;4936744;29;20188;-68
2022/11/28 08:52:27;;;;;;;5.07;3.53;;;6.80;99.90;;;;;;4935319;29;20174;-69
2022/11/28 08:54:53;;;;;;;4.80;4.30;;;6.90;99.90;;;;;;4933773;29;20248;-69
2022/11/28 08:57:19;;;;;;;7.22;4.55;;;7.00;99.90;;;;;;4914513;29;20645;-70
2022/11/28 08:59:44;;;;;;;4.40;4.00;;;7.10;99.90;;;;;;4935751;29;20268;-70
2022/11/28 09:02:11;;;;;;;4.67;4.17;;;7.10;99.90;;;;;;4935114;29;20251;-67
2022/11/28 09:04:37;;;;;;;4.75;4.05;;;7.20;99.90;;;;;;4934376;29;20666;-67
2022/11/28 09:07:02;;;;;;;8.13;4.13;;;7.30;99.90;;;;;;4935861;29;20303;-66
2022/11/28 09:09:28;;;;;;;6.50;5.10;;;7.40;99.90;;;;;;4935107;29;20550;-66
2022/11/28 09:11:54;;;;;;;4.60;4.10;;;7.40;99.90;;;;;;4935439;29;20188;-66
2022/11/28 09:14:51;;;;;;;6.70;4.50;;;7.40;99.90;;;;;;4932990;29;20476;-65
2022/11/28 09:17:41;;;;;;;4.30;3.90;;;7.40;99.90;;;;;;4940894;29;20193;-67
2022/11/28 09:20:07;;;;;;;5.60;4.20;;;7.40;99.90;;;;;;4934924;29;20178;-66
2022/11/28 09:22:33;;;;;;;5.77;4.27;;;7.40;99.90;;;;;;4933412;29;20498;-66
2022/11/28 09:24:59;;;;;;;5.03;4.23;;;7.40;99.90;;;;;;4933134;29;20452;-67
2022/11/28 09:27:24;;;;;;;4.33;3.87;;;7.40;99.90;;;;;;4933733;29;20259;-67
2022/11/28 09:30:21;;;;;;;4.20;3.80;;;7.40;99.90;;;;;;4932525;29;20260;-66
2022/11/28 09:32:48;;;;;;;5.13;4.63;;;7.50;99.90;;;;;;4927229;29;20192;-65
2022/11/28 09:38:33;;;;;;;3.75;3.42;;;7.50;99.90;;;;;;4878618;29;20199;-65
2022/11/28 09:41:00;;;;;;;4.85;4.43;;;7.50;99.90;;;;;;4933616;29;20215;-67
2022/11/28 09:43:32;;;;;;;4.75;4.10;;;7.50;99.90;;;;;;4933383;29;20271;-67
2022/11/28 09:46:01;;;;;;;4.43;4.03;;;7.50;99.90;;;;;;4929385;29;20208;-67
2022/11/28 09:48:36;;;;;;;5.18;3.65;;;7.60;99.90;;;;;;4938068;29;20165;-67
2022/11/28 09:51:15;;;;;;;8.52;5.22;;;7.60;99.90;;;;;;4952310;29;20183;-66
2022/11/28 09:53:54;;;;;;;5.25;3.58;;;7.60;99.90;;;;;;4934833;29;20248;-67
2022/11/28 09:56:21;;;;;;;7.72;5.28;;;7.60;99.90;;;;;;4938999;29;20172;-67
2022/11/28 09:58:57;;;;;;;3.42;3.13;;;7.60;99.90;;;;;;4938937;29;20177;-67
2022/11/28 10:01:55;;;;;;;3.50;3.20;;;7.70;99.90;;;;;;4938603;29;20231;-68
2022/11/28 10:04:53;;;;;;;5.28;4.20;;;7.70;99.90;;;;;;4939128;28;20205;-68
2022/11/28 10:07:28;;;;;;;4.28;3.40;;;7.90;99.90;;;;;;4939036;29;20646;-67
2022/11/28 10:10:19;;;;;;;3.85;3.55;;;7.90;99.90;;;;;;4941738;29;20204;-68
2022/11/28 10:13:07;;;;;;;4.53;3.72;;;7.90;99.90;;;;;;4943297;29;20197;-68
2022/11/28 10:16:01;;;;;;;5.00;3.97;;;7.90;99.90;;;;;;4938720;29;20709;-68
2022/11/28 10:18:33;;;;;;;6.00;3.70;;;8.00;99.90;;;;;;4938883;29;20186;-68
2022/11/28 10:21:07;;;;;;;3.72;3.42;;;8.00;99.90;;;;;;4938672;29;20236;-69
2022/11/28 10:23:43;;;;;;;5.45;3.50;;;8.10;99.90;;;;;;4942206;29;20181;-69
2022/11/28 10:26:31;;;;;;;5.05;3.35;;;8.00;99.90;;;;;;4938498;29;20211;-70
2022/11/28 10:29:00;;;;;;;4.35;3.95;;;8.00;99.90;;;;;;4938385;29;20180;-70
2022/11/28 10:31:41;;;;;;;4.47;4.07;;;8.00;99.90;;;;;;4938744;29;20190;-69
2022/11/28 10:34:25;;;;;;;3.45;3.15;;;8.10;99.90;;;;;;4946799;28;20556;-68
2022/11/28 10:37:19;;;;;;;3.60;3.30;;;8.10;99.90;;;;;;4937637;29;20587;-67
2022/11/28 10:39:45;;;;;;;4.70;4.07;;;8.20;99.90;;;;;;4937947;29;20187;-66
2022/11/28 10:43:02;;;;;;;4.20;3.83;;;8.20;99.90;;;;;;4937678;29;20182;-67
2022/11/28 10:45:51;;;;;;;4.03;3.65;;;8.20;99.90;;;;;;4909054;29;20653;-67
2022/11/28 10:48:29;;;;;;;3.65;3.35;;;8.30;99.90;;;;;;4924954;29;20590;-67
2022/11/28 10:51:03;;;;;;;4.88;3.75;;;8.40;99.90;;;;;;4941243;29;20181;-68
2022/11/28 10:53:40;;;;;;;3.22;3.00;;;8.40;99.90;;;;;;4937712;29;20175;-67
2022/11/28 10:56:32;;;;;;;4.35;3.95;;;8.50;99.90;;;;;;4938163;29;20281;-66
2022/11/28 10:59:04;;;;;;;4.60;3.88;;;8.60;99.90;;;;;;4943763;29;20213;-68
2022/11/28 11:01:40;;;;;;;4.18;3.70;;;8.60;99.90;;;;;;4938361;29;20191;-66
2022/11/28 11:04:17;;;;;;;3.55;3.22;;;8.60;99.90;;;;;;4936716;29;20192;-67
2022/11/28 11:06:43;;;;;;;4.47;4.00;;;8.70;99.90;;;;;;4939968;29;20248;-70
2022/11/28 11:09:11;;;;;;;4.80;4.30;;;8.70;99.90;;;;;;4944714;29;20177;-68
2022/11/28 11:11:44;;;;;;;3.35;3.05;;;8.70;99.90;;;;;;4937946;29;20437;-69
2022/11/28 11:14:10;;;;;;;3.75;3.35;;;8.70;99.90;;;;;;4937321;29;20618;-69
2022/11/28 11:16:51;;;;;;;3.93;3.60;;;8.70;99.90;;;;;;4936845;29;20292;-69
2022/11/28 11:19:38;;;;;;;3.75;3.55;;;8.70;99.90;;;;;;4932753;29;20432;-68
2022/11/28 11:22:30;;;;;;;3.53;3.28;;;8.80;99.90;;;;;;4936898;29;20264;-68
2022/11/28 11:25:16;;;;;;;4.82;4.43;;;8.80;99.90;;;;;;4920846;29;20728;-68
2022/11/28 11:27:53;;;;;;;3.38;3.05;;;8.90;99.90;;;;;;4933401;29;20181;-69
2022/11/28 11:30:31;;;;;;;3.90;3.60;;;8.90;99.90;;;;;;4944119;29;20339;-66
2022/11/28 11:32:59;;;;;;;5.47;3.72;;;8.90;99.90;;;;;;4937519;29;20174;-67
2022/11/28 11:35:35;;;;;;;5.68;4.85;;;8.90;99.90;;;;;;4940880;29;20597;-68
2022/11/28 11:38:19;;;;;;;4.70;3.38;;;8.80;99.90;;;;;;4937087;29;20192;-68
2022/11/28 11:40:46;;;;;;;3.78;3.47;;;8.80;99.90;;;;;;4937680;29;20208;-67
2022/11/28 11:43:30;;;;;;;3.63;3.33;;;8.80;99.90;;;;;;4936739;29;20186;-68
2022/11/28 11:46:10;;;;;;;4.15;3.30;;;8.70;99.90;;;;;;4945502;29;20580;-67
2022/11/28 11:48:43;;;;;;;5.00;4.60;;;8.70;99.90;;;;;;4946407;29;20241;-66
2022/11/28 11:51:27;;;;;;;3.35;3.05;;;8.60;99.90;;;;;;4937009;29;20184;-68
2022/11/28 11:54:05;;;;;;;4.55;4.15;;;8.60;99.90;;;;;;4942552;28;20193;-67
2022/11/28 11:56:35;;;;;;;4.40;4.10;;;8.50;99.90;;;;;;4943171;29;20538;-68
2022/11/28 11:59:06;;;;;;;7.22;4.45;;;8.50;99.90;;;;;;4936854;29;20181;-67
2022/11/28 12:01:35;;;;;;;6.22;3.22;;;8.50;99.90;;;;;;4941824;29;20522;-66
2022/11/28 12:04:07;;;;;;;4.60;4.00;;;8.50;99.90;;;;;;4935602;29;20193;-68
2022/11/28 12:06:38;;;;;;;4.70;3.60;;;8.50;99.90;;;;;;4905086;29;20216;-66
2022/11/28 12:09:21;;;;;;;4.00;3.75;;;8.60;99.90;;;;;;4945873;29;20208;-66
2022/11/28 12:11:53;;;;;;;5.95;4.18;;;8.60;99.90;;;;;;4935474;29;20208;-67
2022/11/28 12:14:26;;;;;;;4.10;3.70;;;8.70;99.90;;;;;;4936032;29;20199;-67
2022/11/28 12:17:13;;;;;;;4.82;4.28;;;8.70;99.90;;;;;;4942106;29;20568;-67
2022/11/28 12:20:00;;;;;;;17.88;11.60;;;8.80;99.90;;;;;;4944680;29;20255;-67
2022/11/28 12:22:33;;;;;;;6.97;5.03;;;8.80;99.90;;;;;;4956042;29;20540;-66
2022/11/28 12:25:23;;;;;;;5.07;4.10;;;8.80;99.90;;;;;;4955466;28;20196;-66
2022/11/28 12:28:03;;;;;;;5.85;4.57;;;8.80;99.90;;;;;;4946686;29;20220;-66
2022/11/28 12:30:50;;;;;;;6.80;4.22;;;8.90;99.90;;;;;;4955663;29;20176;-66
2022/11/28 12:33:46;;;;;;;5.18;4.60;;;9.00;99.90;;;;;;4932357;29;20675;-66
2022/11/28 12:36:47;;;;;;;4.53;3.40;;;9.00;99.90;;;;;;4936872;29;20246;-66
2022/11/28 12:39:12;;;;;;;4.43;3.78;;;9.10;99.90;;;;;;4898729;29;20203;-65
2022/11/28 12:42:04;;;;;;;4.33;3.93;;;9.20;99.90;;;;;;4920380;29;20170;-67
2022/11/28 12:44:36;;;;;;;4.80;3.30;;;9.20;99.90;;;;;;4930525;29;20972;-68
2022/11/28 12:47:14;;;;;;;4.97;4.57;;;9.30;99.90;;;;;;4950854;29;20205;-69
2022/11/28 12:49:56;;;;;;;4.15;3.75;;;9.40;99.90;;;;;;4936448;29;20217;-67
2022/11/28 12:52:40;;;;;;;5.50;4.05;;;9.40;99.90;;;;;;4930905;29;20217;-67
2022/11/28 12:55:32;;;;;;;5.43;4.60;;;9.40;99.90;;;;;;4933208;29;20193;-67
2022/11/28 12:58:20;;;;;;;5.82;4.70;;;9.40;99.90;;;;;;4933882;29;20177;-67
2022/11/28 13:01:04;;;;;;;5.03;4.63;;;9.30;99.90;;;;;;4949124;29;20258;-67
2022/11/28 13:03:40;;;;;;;4.25;3.58;;;9.20;99.90;;;;;;4934952;29;20317;-67
2022/11/28 13:06:08;;;;;;;4.85;3.80;;;9.20;99.90;;;;;;4935780;29;20283;-66
2022/11/28 13:08:53;;;;;;;6.93;4.72;;;9.10;99.90;;;;;;4933222;29;20675;-69
2022/11/28 13:11:39;;;;;;;5.50;4.30;;;9.00;99.90;;;;;;4928662;29;20256;-67
2022/11/28 13:14:23;;;;;;;3.60;3.28;;;9.00;99.90;;;;;;4935617;29;20185;-66
2022/11/28 13:16:56;;;;;;;5.05;4.57;;;9.10;99.90;;;;;;4935129;29;20716;-67
2022/11/28 13:19:48;;;;;;;4.68;4.03;;;9.00;99.90;;;;;;4934959;29;20197;-68
2022/11/28 13:22:19;;;;;;;4.63;4.22;;;8.90;99.90;;;;;;4935733;29;20233;-65
2022/11/28 13:24:59;;;;;;;4.78;4.25;;;8.90;99.90;;;;;;4934929;29;20312;-67
2022/11/28 13:27:40;;;;;;;5.05;4.53;;;8.80;99.90;;;;;;4947313;29;20172;-67
2022/11/28 13:30:11;;;;;;;5.00;4.15;;;8.80;99.90;;;;;;4952667;29;20215;-67
2022/11/28 13:32:44;;;;;;;4.95;4.00;;;8.80;99.90;;;;;;4934532;29;20178;-66
2022/11/28 13:35:13;;;;;;;4.72;4.13;;;8.70;99.90;;;;;;4935140;29;20564;-66
2022/11/28 13:37:53;;;;;;;5.18;4.28;;;8.80;99.90;;;;;;4935348;29;20233;-66
2022/11/28 13:40:33;;;;;;;5.50;4.38;;;8.70;99.90;;;;;;4935603;29;20178;-67
2022/11/28 13:43:24;;;;;;;4.80;4.30;;;8.70;99.90;;;;;;4916946;29;20180;-67
2022/11/28 13:45:51;;;;;;;10.05;6.00;;;8.80;99.90;;;;;;4933475;29;20769;-68
2022/11/28 13:48:37;;;;;;;7.25;5.30;;;8.70;99.90;;;;;;4934942;29;20178;-67
2022/11/28 13:51:11;;;;;;;5.13;4.63;;;8.80;99.90;;;;;;4933766;29;20180;-67
2022/11/28 13:53:38;;;;;;;5.60;5.10;;;8.70;99.90;;;;;;4934745;29;20196;-67
2022/11/28 13:56:06;;;;;;;5.40;4.60;;;8.70;99.90;;;;;;4935084;29;20708;-67
2022/11/28 13:58:49;;;;;;;5.45;4.22;;;8.70;99.90;;;;;;4934804;29;20181;-68
2022/11/28 14:01:20;;;;;;;5.35;4.38;;;8.70;99.90;;;;;;4935513;29;20169;-67
2022/11/28 14:03:46;;;;;;;5.50;4.68;;;8.60;99.90;;;;;;4935590;29;20193;-68
2022/11/28 14:06:17;;;;;;;6.40;5.40;;;8.60;99.90;;;;;;4934925;29;20215;-66
2022/11/28 14:08:45;;;;;;;5.15;4.65;;;8.60;99.90;;;;;;4935760;29;20410;-67
2022/11/28 14:11:37;;;;;;;5.32;4.07;;;8.60;99.90;;;;;;4935314;29;20185;-66
2022/11/28 14:14:36;;;;;;;5.85;5.10;;;8.60;99.90;;;;;;4934216;29;20205;-68
2022/11/28 14:17:29;;;;;;;5.47;4.97;;;8.60;99.90;;;;;;4935850;29;20184;-68
2022/11/28 14:20:33;;;;;;;4.97;4.47;;;8.60;99.90;;;;;;4935682;29;20530;-66
2022/11/28 14:23:25;;;;;;;6.07;4.75;;;8.60;99.90;;;;;;4935140;29;20232;-68
2022/11/28 14:25:52;;;;;;;4.88;4.35;;;8.60;99.90;;;;;;4938939;29;20235;-65
2022/11/28 14:28:50;;;;;;;5.75;4.80;;;8.60;99.90;;;;;;4939107;29;20170;-67
2022/11/28 14:31:34;;;;;;;5.07;4.68;;;8.50;99.90;;;;;;4917447;29;20268;-67
2022/11/28 14:34:05;;;;;;;5.55;4.32;;;8.50;99.90;;;;;;4939215;29;20203;-66
2022/11/28 14:36:33;;;;;;;6.25;4.82;;;8.50;99.90;;;;;;4926630;29;20180;-68
2022/11/28 14:39:06;;;;;;;5.10;4.60;;;8.50;99.90;;;;;;4957088;29;20268;-68
2022/11/28 14:41:32;;;;;;;4.63;4.22;;;8.50;99.90;;;;;;4946471;29;20572;-67
2022/11/28 14:44:36;;;;;;;5.05;4.65;;;8.50;99.90;;;;;;4937981;29;20194;-67
2022/11/28 14:47:38;;;;;;;5.60;4.72;;;8.50;99.90;;;;;;4957772;29;20206;-68
2022/11/28 14:50:04;;;;;;;8.73;5.55;;;8.50;99.90;;;;;;4942199;29;20191;-69
2022/11/28 14:52:30;;;;;;;4.20;3.33;;;8.50;99.90;;;;;;4939142;29;20178;-68
2022/11/28 14:54:57;;;;;;;6.35;4.38;;;8.50;99.90;;;;;;4938014;29;20260;-69
2022/11/28 14:57:31;;;;;;;5.90;4.60;;;8.50;99.90;;;;;;4938516;29;20196;-66
2022/11/28 14:59:58;;;;;;;6.75;4.50;;;8.60;99.90;;;;;;4938408;29;20269;-67
2022/11/28 15:02:43;;;;;;;5.10;4.35;;;8.60;99.90;;;;;;4952515;29;20186;-66
2022/11/28 15:05:36;;;;;;;7.22;4.25;;;8.60;99.90;;;;;;4947757;29;20580;-65
2022/11/28 15:08:31;;;;;;;4.90;3.70;;;8.60;99.90;;;;;;4940682;29;20211;-68
2022/11/28 15:11:15;;;;;;;5.00;3.90;;;8.60;99.90;;;;;;4956668;29;20233;-67
2022/11/28 15:14:17;;;;;;;5.28;4.75;;;8.60;99.90;;;;;;4956834;28;20189;-69
2022/11/28 15:16:45;;;;;;;6.60;4.53;;;8.60;99.90;;;;;;4936912;29;20220;-67
2022/11/28 15:19:32;;;;;;;5.50;4.28;;;8.50;99.90;;;;;;4937375;29;20177;-66
2022/11/28 15:21:59;;;;;;;5.38;4.32;;;8.50;99.90;;;;;;4928010;29;20181;-66
2022/11/28 15:24:33;;;;;;;4.60;3.88;;;8.50;99.90;;;;;;4940568;29;20199;-66
2022/11/28 15:27:11;;;;;;;4.03;3.70;;;8.50;99.90;;;;;;4919041;29;20252;-67
2022/11/28 15:29:36;;;;;;;5.53;4.38;;;8.50;99.90;;;;;;4927528;29;20188;-68
2022/11/28 15:32:03;;;;;;;11.47;5.63;;;8.50;99.90;;;;;;4937386;29;20191;-68
2022/11/28 15:34:34;;;;;;;4.90;4.47;;;8.50;99.90;;;;;;4940106;29;20197;-69
2022/11/28 15:37:04;;;;;;;5.72;4.25;;;8.50;99.90;;;;;;4956821;29;20196;-70
2022/11/28 15:39:29;;;;;;;6.40;4.85;;;8.50;99.90;;;;;;4956482;29;20208;-69
2022/11/28 15:41:57;;;;;;;4.33;3.70;;;8.50;99.90;;;;;;4943776;29;20582;-70
2022/11/28 15:44:23;;;;;;;6.45;4.60;;;8.50;99.90;;;;;;4951896;28;20304;-73
2022/11/28 15:46:49;;;;;;;6.10;5.32;;;8.40;99.90;;;;;;4943933;29;20258;-76
2022/11/28 15:49:32;;;;;;;4.67;4.27;;;8.40;99.90;;;;;;4936984;29;20601;-75
2022/11/28 15:52:01;;;;;;;12.80;5.15;;;8.40;99.90;;;;;;4951847;29;20264;-72
2022/11/28 15:54:41;;;;;;;7.50;5.40;;;8.40;99.90;;;;;;4919818;29;20245;-70
2022/11/28 15:57:18;;;;;;;4.82;4.15;;;8.40;99.90;;;;;;4916263;29;20256;-68
2022/11/28 15:59:43;;;;;;;6.75;4.75;;;8.40;99.90;;;;;;4929833;29;20200;-77
2022/11/28 16:02:28;;;;;;;4.40;3.83;;;8.40;99.90;;;;;;4938033;29;20182;-70
2022/11/28 16:05:07;;;;;;;5.95;5.35;;;8.40;99.90;;;;;;4936599;29;20464;-68
2022/11/28 16:07:34;;;;;;;5.18;4.68;;;8.30;99.90;;;;;;4938898;29;20193;-77
2022/11/28 16:10:15;;;;;;;6.70;5.32;;;8.30;99.90;;;;;;4936666;29;20269;-67
2022/11/28 16:12:40;;;;;;;7.07;5.75;;;8.30;99.90;;;;;;4936666;29;20199;-73
2022/11/28 16:15:14;;;;;;;7.27;6.53;;;8.30;99.90;;;;;;4936801;29;20208;-72
2022/11/28 16:17:41;;;;;;;9.38;4.82;;;8.30;99.90;;;;;;4935075;29;20196;-70
2022/11/28 16:20:32;;;;;;;6.50;5.68;;;8.30;99.90;;;;;;4941362;29;20184;-70
2022/11/28 16:23:01;;;;;;;8.00;5.03;;;8.30;99.90;;;;;;4941712;29;20187;-71
2022/11/28 16:25:27;;;;;;;9.07;5.32;;;8.30;99.90;;;;;;4955842;28;20199;-72
2022/11/28 16:27:56;;;;;;;6.13;5.07;;;8.20;99.90;;;;;;4955039;29;20180;-73
2022/11/28 16:30:36;;;;;;;6.50;4.90;;;8.20;99.90;;;;;;4955888;29;20172;-70
2022/11/28 16:33:22;;;;;;;5.70;5.18;;;8.20;99.90;;;;;;4955528;29;20227;-65
2022/11/28 16:35:48;;;;;;;6.85;5.97;;;8.20;99.90;;;;;;4955768;29;20172;-66
2022/11/28 16:38:24;;;;;;;9.40;5.47;;;8.20;99.90;;;;;;4955110;29;20207;-67
2022/11/28 16:40:50;;;;;;;7.18;5.90;;;8.20;99.90;;;;;;4955735;29;20172;-65
2022/11/28 16:43:26;;;;;;;5.20;4.50;;;8.20;99.90;;;;;;4938101;28;20176;-67
2022/11/28 16:46:05;;;;;;;5.55;4.57;;;8.20;99.90;;;;;;4944958;29;20641;-67
2022/11/28 16:48:33;;;;;;;10.38;6.82;;;8.20;99.90;;;;;;4935360;29;20402;-65
2022/11/28 16:51:11;;;;;;;7.97;5.97;;;8.20;99.90;;;;;;4936460;29;20224;-67
2022/11/28 16:53:44;;;;;;;6.75;6.10;;;8.20;99.90;;;;;;4936093;29;20185;-65
2022/11/28 16:56:25;;;;;;;7.90;6.35;;;8.30;99.90;;;;;;4946425;29;20183;-65
2022/11/28 16:59:12;;;;;;;9.13;6.75;;;8.30;99.90;;;;;;4932285;29;20181;-67
2022/11/28 17:01:39;;;;;;;9.13;7.15;;;8.20;99.90;;;;;;4934745;29;20610;-63
2022/11/28 17:04:05;;;;;;;7.95;6.82;;;8.20;99.90;;;;;;4937000;29;20569;-66
2022/11/28 17:06:35;;;;;;;9.07;8.15;;;8.20;99.90;;;;;;4954259;29;20299;-64
2022/11/28 17:09:08;;;;;;;10.55;7.90;;;8.20;99.90;;;;;;4955190;29;20168;-65
2022/11/28 17:11:36;;;;;;;7.03;6.38;;;8.20;99.90;;;;;;4955378;29;20551;-65
2022/11/28 17:14:03;;;;;;;7.72;6.93;;;8.20;99.90;;;;;;4954591;28;20220;-65
2022/11/28 17:16:32;;;;;;;9.10;6.90;;;8.20;99.90;;;;;;4936021;29;20553;-67
2022/11/28 17:18:58;;;;;;;7.60;6.65;;;8.20;99.90;;;;;;4935964;29;20200;-67
2022/11/28 17:21:38;;;;;;;8.50;6.35;;;8.20;99.90;;;;;;4935373;29;20181;-63
2022/11/28 17:24:05;;;;;;;12.63;6.07;;;8.20;99.90;;;;;;4934747;29;20673;-66
2022/11/28 17:26:30;;;;;;;8.00;6.40;;;8.10;99.90;;;;;;4937143;29;20216;-68
2022/11/28 17:28:57;;;;;;;8.30;7.30;;;8.10;99.90;;;;;;4935794;29;20184;-63
2022/11/28 17:31:23;;;;;;;7.43;5.78;;;8.10;99.90;;;;;;4935786;29;20170;-65
2022/11/28 17:33:49;;;;;;;8.57;6.67;;;8.00;99.90;;;;;;4935449;29;20196;-69
2022/11/28 17:36:15;;;;;;;9.27;7.07;;;8.00;99.90;;;;;;4952300;29;20190;-67
2022/11/28 17:38:40;;;;;;;9.37;7.30;;;8.00;99.90;;;;;;4954913;29;20846;-69
2022/11/28 17:41:12;;;;;;;10.63;6.53;;;8.00;99.90;;;;;;4954982;29;20184;-63
2022/11/28 17:43:37;;;;;;;10.50;8.00;;;8.10;99.90;;;;;;4941853;29;20201;-65
2022/11/28 17:46:03;;;;;;;9.13;7.40;;;8.00;99.90;;;;;;4950191;29;20215;-67
2022/11/28 17:48:28;;;;;;;10.63;8.30;;;8.00;99.90;;;;;;4952997;29;20202;-67
2022/11/28 17:50:54;;;;;;;9.67;7.90;;;8.00;99.90;;;;;;4939938;29;20226;-67
2022/11/28 17:53:21;;;;;;;12.95;7.95;;;8.00;99.90;;;;;;4954410;28;20260;-66
2022/11/28 17:55:48;;;;;;;7.90;7.20;;;8.00;99.90;;;;;;4941945;29;20181;-66
2022/11/28 17:58:17;;;;;;;8.98;7.93;;;8.00;99.90;;;;;;4950776;28;20208;-65
2022/11/28 18:00:43;;;;;;;7.90;7.10;;;8.00;99.90;;;;;;4939182;29;20216;-65
2022/11/28 18:03:09;;;;;;;9.25;7.95;;;8.00;99.90;;;;;;4937859;29;20184;-65
2022/11/28 18:05:48;;;;;;;11.47;8.37;;;7.90;99.90;;;;;;4938380;29;20215;-67
2022/11/28 18:08:15;;;;;;;8.57;7.88;;;8.00;99.90;;;;;;4939568;29;20241;-67
2022/11/28 18:10:40;;;;;;;7.88;6.10;;;7.90;99.90;;;;;;4950721;29;20180;-67
2022/11/28 18:13:08;;;;;;;6.60;5.90;;;7.90;99.90;;;;;;4948262;29;20572;-64
2022/11/28 18:15:34;;;;;;;11.15;10.02;;;7.90;99.90;;;;;;4938651;29;20216;-67
2022/11/28 18:18:02;;;;;;;12.23;9.52;;;7.80;99.90;;;;;;4940682;29;20180;-66
2022/11/28 18:20:28;;;;;;;13.98;10.05;;;7.80;99.90;;;;;;4938848;29;20259;-69
2022/11/28 18:22:55;;;;;;;9.67;8.70;;;7.80;99.90;;;;;;4937842;29;20304;-65
2022/11/28 18:25:21;;;;;;;15.85;12.50;;;7.80;99.90;;;;;;4921304;29;20441;-65
2022/11/28 18:27:47;;;;;;;13.00;9.18;;;7.80;99.90;;;;;;4940301;29;20207;-64
2022/11/28 18:30:13;;;;;;;10.43;7.50;;;7.80;99.90;;;;;;4938198;29;20243;-66
2022/11/28 18:32:39;;;;;;;12.77;9.20;;;7.80;99.90;;;;;;4937567;29;20424;-65